createdAt,value
2023-01-18T00:00:49.409Z,1.56
2023-01-18T00:01:49.510Z,1.58
2023-01-18T00:02:49.744Z,1.59
2023-01-18T00:03:49.508Z,1.58
2023-01-18T00:04:51.874Z,1.57
2023-01-18T00:05:49.759Z,1.57
2023-01-18T00:06:49.501Z,1.59
2023-01-18T00:07:49.745Z,1.58
2023-01-18T00:08:49.465Z,1.57
2023-01-18T00:09:49.445Z,1.56
2023-01-18T00:10:49.525Z,1.56
2023-01-18T00:11:49.477Z,1.55
2023-01-18T00:12:49.755Z,1.54
2023-01-18T00:13:49.530Z,1.52
2023-01-18T00:14:49.519Z,1.52
2023-01-18T00:15:51.767Z,1.52
2023-01-18T00:16:49.411Z,1.52
2023-01-18T00:17:49.495Z,1.56
2023-01-18T00:18:49.482Z,1.55
2023-01-18T00:19:49.506Z,1.54
2023-01-18T00:20:49.762Z,1.54
2023-01-18T00:21:49.405Z,1.52
2023-01-18T00:22:49.742Z,1.54
2023-01-18T00:23:49.431Z,1.54
2023-01-18T00:24:49.427Z,1.55
2023-01-18T00:25:49.586Z,1.56
2023-01-18T00:26:51.791Z,1.56
2023-01-18T00:27:49.763Z,1.56
2023-01-18T00:28:49.486Z,1.56
2023-01-18T00:29:49.407Z,1.56
2023-01-18T00:30:49.501Z,1.55
2023-01-18T00:31:49.518Z,1.55
2023-01-18T00:32:49.772Z,1.56
2023-01-18T00:33:49.427Z,1.54
2023-01-18T00:34:50.595Z,1.54
2023-01-18T00:35:49.753Z,1.54
2023-01-18T00:36:49.526Z,1.53
2023-01-18T00:37:51.837Z,1.52
2023-01-18T00:38:49.473Z,1.51
2023-01-18T00:39:49.395Z,1.51
2023-01-18T00:40:49.446Z,1.52
2023-01-18T00:41:49.398Z,1.54
2023-01-18T00:42:49.745Z,1.52
2023-01-18T00:43:49.513Z,1.53
2023-01-18T00:44:49.406Z,1.54
2023-01-18T00:45:49.576Z,1.51
2023-01-18T00:46:49.475Z,1.5
2023-01-18T00:47:49.758Z,1.5
2023-01-18T00:48:51.764Z,1.49
2023-01-18T00:49:49.461Z,1.5
2023-01-18T00:50:49.769Z,1.48
2023-01-18T00:51:49.485Z,1.47
2023-01-18T00:52:49.749Z,1.46
2023-01-18T00:53:49.412Z,1.46
2023-01-18T00:54:49.393Z,1.47
2023-01-18T00:55:49.446Z,1.46
2023-01-18T00:56:49.449Z,1.42
2023-01-18T00:57:49.754Z,1.4
2023-01-18T00:58:49.515Z,1.4
2023-01-18T00:59:51.807Z,1.42
2023-01-18T01:00:49.651Z,1.39
2023-01-18T01:01:49.720Z,1.37
2023-01-18T01:02:49.807Z,1.36
2023-01-18T01:03:49.470Z,1.4
2023-01-18T01:04:49.507Z,1.41
2023-01-18T01:05:49.753Z,1.41
2023-01-18T01:06:49.534Z,1.42
2023-01-18T01:07:49.743Z,1.43
2023-01-18T01:08:49.535Z,1.44
2023-01-18T01:09:49.445Z,1.44
2023-01-18T01:10:51.757Z,1.44
2023-01-18T01:11:49.408Z,1.42
2023-01-18T01:12:49.797Z,1.44
2023-01-18T01:13:49.543Z,1.44
2023-01-18T01:14:49.484Z,1.43
2023-01-18T01:15:49.491Z,1.43
2023-01-18T01:16:49.458Z,1.42
2023-01-18T01:17:49.745Z,1.43
2023-01-18T01:18:49.385Z,1.42
2023-01-18T01:19:49.465Z,1.43
2023-01-18T01:20:49.754Z,1.43
2023-01-18T01:21:51.791Z,1.45
2023-01-18T01:22:49.750Z,1.44
2023-01-18T01:23:49.497Z,1.44
2023-01-18T01:24:49.489Z,1.43
2023-01-18T01:25:49.478Z,1.41
2023-01-18T01:26:49.433Z,1.42
2023-01-18T01:27:49.756Z,1.44
2023-01-18T01:28:49.489Z,1.43
2023-01-18T01:29:49.501Z,1.46
2023-01-18T01:30:49.605Z,1.45
2023-01-18T01:31:49.549Z,1.47
2023-01-18T01:32:54.257Z,1.46
2023-01-18T01:33:49.526Z,1.47
2023-01-18T01:34:49.444Z,1.47
2023-01-18T01:35:49.747Z,1.5
2023-01-18T01:36:49.411Z,1.48
2023-01-18T01:37:49.755Z,1.46
2023-01-18T01:38:49.479Z,1.46
2023-01-18T01:39:49.509Z,1.45
2023-01-18T01:40:49.465Z,1.45
2023-01-18T01:41:49.559Z,1.47
2023-01-18T01:42:49.756Z,1.45
2023-01-18T01:43:51.825Z,1.44
2023-01-18T01:44:49.429Z,1.45
2023-01-18T01:45:49.503Z,1.46
2023-01-18T01:46:49.443Z,1.45
2023-01-18T01:47:49.751Z,1.46
2023-01-18T01:48:49.503Z,1.46
2023-01-18T01:49:49.528Z,1.49
2023-01-18T01:50:49.749Z,1.51
2023-01-18T01:51:49.494Z,1.51
2023-01-18T01:52:49.744Z,1.5
2023-01-18T01:53:49.530Z,1.49
2023-01-18T01:54:51.797Z,1.48
2023-01-18T01:55:49.477Z,1.47
2023-01-18T01:56:49.500Z,1.46
2023-01-18T01:57:49.752Z,1.48
2023-01-18T01:58:49.473Z,1.48
2023-01-18T01:59:49.458Z,1.47
2023-01-18T02:00:49.546Z,1.47
2023-01-18T02:01:49.462Z,1.46
2023-01-18T02:02:49.842Z,1.44
2023-01-18T02:03:49.434Z,1.43
2023-01-18T02:04:49.541Z,1.45
2023-01-18T02:05:54.229Z,1.43
2023-01-18T02:06:49.464Z,1.41
2023-01-18T02:07:49.749Z,1.4
2023-01-18T02:08:49.460Z,1.42
2023-01-18T02:09:49.400Z,1.41
2023-01-18T02:10:49.471Z,1.42
2023-01-18T02:11:49.539Z,1.42
2023-01-18T02:12:49.755Z,1.41
2023-01-18T02:13:49.488Z,1.41
2023-01-18T02:14:49.481Z,1.4
2023-01-18T02:15:49.531Z,1.41
2023-01-18T02:16:51.893Z,1.4
2023-01-18T02:17:49.766Z,1.39
2023-01-18T02:18:49.422Z,1.39
2023-01-18T02:19:49.419Z,1.4
2023-01-18T02:20:49.751Z,1.41
2023-01-18T02:21:49.497Z,1.4
2023-01-18T02:22:49.747Z,1.43
2023-01-18T02:23:49.465Z,1.43
2023-01-18T02:24:49.476Z,1.44
2023-01-18T02:25:49.404Z,1.45
2023-01-18T02:26:49.494Z,1.46
2023-01-18T02:27:54.224Z,1.46
2023-01-18T02:28:49.418Z,1.46
2023-01-18T02:29:49.409Z,1.47
2023-01-18T02:30:49.558Z,1.48
2023-01-18T02:31:49.415Z,1.48
2023-01-18T02:32:49.756Z,1.48
2023-01-18T02:33:49.387Z,1.49
2023-01-18T02:34:49.400Z,1.49
2023-01-18T02:35:49.775Z,1.5
2023-01-18T02:36:49.419Z,1.51
2023-01-18T02:37:49.755Z,1.52
2023-01-18T02:38:51.791Z,1.51
2023-01-18T02:39:49.411Z,1.52
2023-01-18T02:40:49.518Z,1.52
2023-01-18T02:41:49.420Z,1.52
2023-01-18T02:42:49.743Z,1.54
2023-01-18T02:43:49.498Z,1.54
2023-01-18T02:44:49.462Z,1.53
2023-01-18T02:45:49.516Z,1.53
2023-01-18T02:46:49.539Z,1.53
2023-01-18T02:47:49.748Z,1.52
2023-01-18T02:48:49.492Z,1.5
2023-01-18T02:49:51.848Z,1.51
2023-01-18T02:50:49.749Z,1.5
2023-01-18T02:51:49.364Z,1.54
2023-01-18T02:52:49.764Z,1.53
2023-01-18T02:53:49.528Z,1.53
2023-01-18T02:54:49.548Z,1.53
2023-01-18T02:55:49.485Z,1.53
2023-01-18T02:56:49.388Z,1.53
2023-01-18T02:57:49.750Z,1.52
2023-01-18T02:58:49.436Z,1.5
2023-01-18T02:59:49.401Z,1.51
2023-01-18T03:00:51.837Z,1.49
2023-01-18T03:01:49.524Z,1.49
2023-01-18T03:02:49.820Z,1.51
2023-01-18T03:03:49.395Z,1.52
2023-01-18T03:04:49.446Z,1.5
2023-01-18T03:05:49.879Z,1.49
2023-01-18T03:06:49.407Z,1.49
2023-01-18T03:07:49.742Z,1.49
2023-01-18T03:08:49.416Z,1.48
2023-01-18T03:09:49.454Z,1.49
2023-01-18T03:10:49.396Z,1.5
2023-01-18T03:11:51.824Z,1.49
2023-01-18T03:12:49.750Z,1.49
2023-01-18T03:13:49.508Z,1.5
2023-01-18T03:14:49.488Z,1.49
2023-01-18T03:15:49.543Z,1.49
2023-01-18T03:16:49.537Z,1.47
2023-01-18T03:17:49.756Z,1.47
2023-01-18T03:18:49.412Z,1.47
2023-01-18T03:19:49.454Z,1.45
2023-01-18T03:20:49.747Z,1.46
2023-01-18T03:21:49.408Z,1.45
2023-01-18T03:22:54.372Z,1.46
2023-01-18T03:23:49.508Z,1.45
2023-01-18T03:24:49.494Z,1.45
2023-01-18T03:25:49.478Z,1.44
2023-01-18T03:26:49.512Z,1.43
2023-01-18T03:27:49.760Z,1.44
2023-01-18T03:28:49.535Z,1.43
2023-01-18T03:29:49.402Z,1.42
2023-01-18T03:30:49.423Z,1.44
2023-01-18T03:31:49.508Z,1.46
2023-01-18T03:32:49.407Z,1.44
2023-01-18T03:33:51.736Z,1.45
2023-01-18T03:34:49.492Z,1.43
2023-01-18T03:35:49.761Z,1.45
2023-01-18T03:36:49.429Z,1.47
2023-01-18T03:37:49.757Z,1.47
2023-01-18T03:38:49.451Z,1.48
2023-01-18T03:39:49.491Z,1.48
2023-01-18T03:40:49.400Z,1.48
2023-01-18T03:41:49.411Z,1.48
2023-01-18T03:42:50.859Z,1.48
2023-01-18T03:43:49.587Z,1.47
2023-01-18T03:44:51.922Z,1.48
2023-01-18T03:45:49.667Z,1.49
2023-01-18T03:46:49.423Z,1.5
2023-01-18T03:47:49.520Z,1.5
2023-01-18T03:48:49.771Z,1.5
2023-01-18T03:49:49.534Z,1.5
2023-01-18T03:50:49.763Z,1.5
2023-01-18T03:51:49.533Z,1.49
2023-01-18T03:52:49.453Z,1.5
2023-01-18T03:53:49.745Z,1.49
2023-01-18T03:54:49.396Z,1.49
2023-01-18T03:55:51.839Z,1.49
2023-01-18T03:56:49.551Z,1.48
2023-01-18T03:57:49.412Z,1.48
2023-01-18T03:58:49.501Z,1.48
2023-01-18T03:59:49.470Z,1.5
2023-01-18T04:00:49.469Z,1.5
2023-01-18T04:01:49.551Z,1.51
2023-01-18T04:02:49.565Z,1.5
2023-01-18T04:03:49.757Z,1.48
2023-01-18T04:04:49.495Z,1.5
2023-01-18T04:05:49.759Z,1.51
2023-01-18T04:06:51.840Z,1.51
2023-01-18T04:07:49.527Z,1.53
2023-01-18T04:08:49.739Z,1.52
2023-01-18T04:09:49.506Z,1.53
2023-01-18T04:10:49.527Z,1.53
2023-01-18T04:11:49.421Z,1.56
2023-01-18T04:12:49.520Z,1.57
2023-01-18T04:13:49.747Z,1.57
2023-01-18T04:14:49.512Z,1.56
2023-01-18T04:15:49.467Z,1.56
2023-01-18T04:16:49.486Z,1.56
2023-01-18T04:17:51.768Z,1.55
2023-01-18T04:18:49.753Z,1.56
2023-01-18T04:19:49.514Z,1.57
2023-01-18T04:20:49.748Z,1.57
2023-01-18T04:21:49.436Z,1.57
2023-01-18T04:22:49.501Z,1.56
2023-01-18T04:23:49.752Z,1.55
2023-01-18T04:24:49.413Z,1.53
2023-01-18T04:25:49.465Z,1.55
2023-01-18T04:26:49.421Z,1.55
2023-01-18T04:27:49.439Z,1.55
2023-01-18T04:28:54.194Z,1.53
2023-01-18T04:29:49.395Z,1.55
2023-01-18T04:30:49.388Z,1.56
2023-01-18T04:31:49.509Z,1.55
2023-01-18T04:32:49.414Z,1.56
2023-01-18T04:33:49.750Z,1.55
2023-01-18T04:34:49.432Z,1.54
2023-01-18T04:35:49.758Z,1.53
2023-01-18T04:36:49.504Z,1.54
2023-01-18T04:37:49.467Z,1.52
2023-01-18T04:38:49.750Z,1.52
2023-01-18T04:39:51.745Z,1.53
2023-01-18T04:40:49.399Z,1.53
2023-01-18T04:41:49.415Z,1.52
2023-01-18T04:42:49.401Z,1.52
2023-01-18T04:43:49.845Z,1.52
2023-01-18T04:44:49.545Z,1.51
2023-01-18T04:45:49.421Z,1.51
2023-01-18T04:46:49.561Z,1.52
2023-01-18T04:47:49.431Z,1.53
2023-01-18T04:48:49.771Z,1.55
2023-01-18T04:49:49.522Z,1.55
2023-01-18T04:50:54.264Z,1.55
2023-01-18T04:51:49.491Z,1.55
2023-01-18T04:52:49.488Z,1.57
2023-01-18T04:53:49.754Z,1.57
2023-01-18T04:54:49.421Z,1.56
2023-01-18T04:55:49.507Z,1.57
2023-01-18T04:56:49.501Z,1.56
2023-01-18T04:57:49.473Z,1.56
2023-01-18T04:58:49.426Z,1.55
2023-01-18T04:59:49.548Z,1.56
2023-01-18T05:00:49.620Z,1.54
2023-01-18T05:01:51.843Z,1.52
2023-01-18T05:02:49.511Z,1.52
2023-01-18T05:03:49.465Z,1.5
2023-01-18T05:04:49.524Z,1.48
2023-01-18T05:05:49.759Z,1.45
2023-01-18T05:06:49.524Z,1.45
2023-01-18T05:07:49.435Z,1.44
2023-01-18T05:08:49.750Z,1.42
2023-01-18T05:09:49.547Z,1.42
2023-01-18T05:10:49.519Z,1.42
2023-01-18T05:11:49.436Z,1.43
2023-01-18T05:12:51.839Z,1.43
2023-01-18T05:13:49.753Z,1.42
2023-01-18T05:14:49.457Z,1.4
2023-01-18T05:15:49.426Z,1.4
2023-01-18T05:16:49.382Z,1.39
2023-01-18T05:17:49.478Z,1.4
2023-01-18T05:18:49.874Z,1.41
2023-01-18T05:19:49.518Z,1.42
2023-01-18T05:20:49.748Z,1.42
2023-01-18T05:21:49.394Z,1.4
2023-01-18T05:22:49.507Z,1.4
2023-01-18T05:23:54.217Z,1.41
2023-01-18T05:24:49.554Z,1.42
2023-01-18T05:25:49.507Z,1.44
2023-01-18T05:26:49.510Z,1.47
2023-01-18T05:27:49.480Z,1.49
2023-01-18T05:28:49.752Z,1.51
2023-01-18T05:29:49.420Z,1.5
2023-01-18T05:30:49.415Z,1.5
2023-01-18T05:31:49.479Z,1.55
2023-01-18T05:32:49.457Z,1.55
2023-01-18T05:33:49.758Z,1.54
2023-01-18T05:34:51.842Z,1.54
2023-01-18T05:35:49.756Z,1.53
2023-01-18T05:36:49.456Z,1.55
2023-01-18T05:37:49.483Z,1.56
2023-01-18T05:38:49.755Z,1.59
2023-01-18T05:39:49.523Z,1.58
2023-01-18T05:40:49.511Z,1.57
2023-01-18T05:41:49.459Z,1.56
2023-01-18T05:42:49.502Z,1.56
2023-01-18T05:43:49.762Z,1.55
2023-01-18T05:44:49.436Z,1.56
2023-01-18T05:45:51.898Z,1.58
2023-01-18T05:46:49.430Z,1.59
2023-01-18T05:47:49.505Z,1.6
2023-01-18T05:48:49.755Z,1.61
2023-01-18T05:49:49.596Z,1.62
2023-01-18T05:50:49.759Z,1.64
2023-01-18T05:51:49.397Z,1.64
2023-01-18T05:52:49.432Z,1.64
2023-01-18T05:53:49.755Z,1.64
2023-01-18T05:54:49.413Z,1.64
2023-01-18T05:55:49.486Z,1.63
2023-01-18T05:56:51.831Z,1.63
2023-01-18T05:57:49.503Z,1.63
2023-01-18T05:58:49.533Z,1.64
2023-01-18T05:59:49.402Z,1.64
2023-01-18T06:00:49.527Z,1.62
2023-01-18T06:01:49.569Z,1.61
2023-01-18T06:02:49.525Z,1.62
2023-01-18T06:03:49.773Z,1.61
2023-01-18T06:04:49.398Z,1.59
2023-01-18T06:05:49.752Z,1.59
2023-01-18T06:06:49.536Z,1.6
2023-01-18T06:07:51.765Z,1.6
2023-01-18T06:08:50.007Z,1.59
2023-01-18T06:09:49.476Z,1.6
2023-01-18T06:10:49.522Z,1.59
2023-01-18T06:11:49.475Z,1.6
2023-01-18T06:12:49.512Z,1.59
2023-01-18T06:13:49.750Z,1.58
2023-01-18T06:14:49.425Z,1.58
2023-01-18T06:15:49.728Z,1.57
2023-01-18T06:16:49.479Z,1.55
2023-01-18T06:17:49.453Z,1.56
2023-01-18T06:18:54.192Z,1.55
2023-01-18T06:19:49.492Z,1.55
2023-01-18T06:20:49.747Z,1.56
2023-01-18T06:21:49.388Z,1.56
2023-01-18T06:22:49.508Z,1.55
2023-01-18T06:23:49.829Z,1.54
2023-01-18T06:24:49.415Z,1.55
2023-01-18T06:25:49.517Z,1.55
2023-01-18T06:26:49.442Z,1.53
2023-01-18T06:27:49.510Z,1.52
2023-01-18T06:28:49.768Z,1.51
2023-01-18T06:29:51.774Z,1.5
2023-01-18T06:30:49.549Z,1.49
2023-01-18T06:31:49.454Z,1.47
2023-01-18T06:32:49.429Z,1.45
2023-01-18T06:33:49.750Z,1.43
2023-01-18T06:34:49.394Z,1.42
2023-01-18T06:35:49.992Z,1.42
2023-01-18T06:36:49.517Z,1.4
2023-01-18T06:37:49.514Z,1.38
2023-01-18T06:38:49.995Z,1.39
2023-01-18T06:39:49.406Z,1.39
2023-01-18T06:40:51.863Z,1.39
2023-01-18T06:41:49.525Z,1.39
2023-01-18T06:42:49.449Z,1.39
2023-01-18T06:43:49.757Z,1.38
2023-01-18T06:44:49.434Z,1.39
2023-01-18T06:45:52.116Z,1.38
2023-01-18T06:46:49.462Z,1.38
2023-01-18T06:47:49.477Z,1.39
2023-01-18T06:48:49.493Z,1.38
2023-01-18T06:49:49.496Z,1.38
2023-01-18T06:50:49.546Z,1.37
2023-01-18T06:51:51.865Z,1.38
2023-01-18T06:52:49.407Z,1.38
2023-01-18T06:53:49.757Z,1.36
2023-01-18T06:54:49.476Z,1.33
2023-01-18T06:55:49.526Z,1.31
2023-01-18T06:56:49.505Z,1.33
2023-01-18T06:57:49.540Z,1.35
2023-01-18T06:58:49.764Z,1.35
2023-01-18T06:59:49.509Z,1.34
2023-01-18T07:00:49.690Z,1.32
2023-01-18T07:01:49.649Z,1.34
2023-01-18T07:02:51.798Z,1.31
2023-01-18T07:03:54.300Z,1.29
2023-01-18T07:04:49.391Z,1.27
2023-01-18T07:05:49.789Z,1.27
2023-01-18T07:06:49.361Z,1.25
2023-01-18T07:07:49.397Z,1.22
2023-01-18T07:08:49.382Z,1.22
2023-01-18T07:09:49.539Z,1.21
2023-01-18T07:10:49.378Z,1.18
2023-01-18T07:11:49.400Z,1.18
2023-01-18T07:12:49.395Z,1.24
2023-01-18T07:13:49.418Z,1.28
2023-01-18T07:14:49.780Z,1.28
2023-01-18T07:15:49.391Z,1.31
2023-01-18T07:16:49.595Z,1.33
2023-01-18T07:17:49.386Z,1.32
2023-01-18T07:18:51.761Z,1.34
2023-01-18T07:19:49.399Z,1.34
2023-01-18T07:20:52.802Z,1.32
2023-01-18T07:21:49.411Z,1.29
2023-01-18T07:22:49.389Z,1.28
2023-01-18T07:23:49.406Z,1.31
2023-01-18T07:24:49.792Z,1.3
2023-01-18T07:25:49.395Z,1.36
2023-01-18T07:26:49.404Z,1.37
2023-01-18T07:27:49.399Z,1.39
2023-01-18T07:28:49.422Z,1.41
2023-01-18T07:29:52.197Z,1.39
2023-01-18T07:30:49.485Z,1.43
2023-01-18T07:31:49.451Z,1.45
2023-01-18T07:32:49.408Z,1.46
2023-01-18T07:33:49.392Z,1.44
2023-01-18T07:34:49.753Z,1.44
2023-01-18T07:35:49.403Z,1.45
2023-01-18T07:36:49.405Z,1.47
2023-01-18T07:37:49.382Z,1.45
2023-01-18T07:38:49.437Z,1.45
2023-01-18T07:39:49.494Z,1.45
2023-01-18T07:40:51.780Z,1.46
2023-01-18T07:41:49.395Z,1.46
2023-01-18T07:42:49.436Z,1.46
2023-01-18T07:43:49.457Z,1.46
2023-01-18T07:44:49.781Z,1.48
2023-01-18T07:45:49.427Z,1.49
2023-01-18T07:46:49.403Z,1.5
2023-01-18T07:47:49.390Z,1.51
2023-01-18T07:48:49.401Z,1.53
2023-01-18T07:49:49.747Z,1.56
2023-01-18T07:50:49.488Z,1.57
2023-01-18T07:51:54.328Z,1.57
2023-01-18T07:52:49.442Z,1.57
2023-01-18T07:53:49.390Z,1.57
2023-01-18T07:54:49.753Z,1.57
2023-01-18T07:55:49.385Z,1.58
2023-01-18T07:56:49.402Z,1.6
2023-01-18T07:57:49.396Z,1.61
2023-01-18T07:58:49.383Z,1.64
2023-01-18T07:59:49.758Z,1.64
2023-01-18T08:00:49.440Z,1.65
2023-01-18T08:01:49.404Z,1.64
2023-01-18T08:02:51.871Z,1.65
2023-01-18T08:03:49.380Z,1.66
2023-01-18T08:04:49.763Z,1.67
2023-01-18T08:05:49.533Z,1.69
2023-01-18T08:06:49.775Z,1.73
2023-01-18T08:07:49.535Z,1.74
2023-01-18T08:08:49.391Z,1.75
2023-01-18T08:09:49.757Z,1.76
2023-01-18T08:10:49.386Z,1.78
2023-01-18T08:11:49.419Z,1.79
2023-01-18T08:12:49.488Z,1.79
2023-01-18T08:13:51.735Z,1.74
2023-01-18T08:14:52.805Z,1.8
2023-01-18T08:15:49.448Z,1.8
2023-01-18T08:16:49.383Z,1.82
2023-01-18T08:17:49.398Z,1.88
2023-01-18T08:18:49.531Z,1.93
2023-01-18T08:19:49.389Z,1.99
2023-01-18T08:20:49.781Z,2
2023-01-18T08:21:49.766Z,2
2023-01-18T08:22:49.401Z,2
2023-01-18T08:23:49.400Z,2
2023-01-18T08:24:51.874Z,2.03
2023-01-18T08:25:49.955Z,2.1
2023-01-18T08:26:49.410Z,2.11
2023-01-18T08:27:49.390Z,2.13
2023-01-18T08:28:49.544Z,2.2
2023-01-18T08:29:49.417Z,2.18
2023-01-18T08:30:49.838Z,2.17
2023-01-18T08:31:49.405Z,2.16
2023-01-18T08:32:49.408Z,2.16
2023-01-18T08:33:49.404Z,2.17
2023-01-18T08:34:49.389Z,2.18
2023-01-18T08:35:52.092Z,2.17
2023-01-18T08:36:49.781Z,2.18
2023-01-18T08:37:49.394Z,2.21
2023-01-18T08:38:49.407Z,2.23
2023-01-18T08:39:49.402Z,2.23
2023-01-18T08:40:49.806Z,2.29
2023-01-18T08:41:49.406Z,2.28
2023-01-18T08:42:49.409Z,2.29
2023-01-18T08:43:49.394Z,2.28
2023-01-18T08:44:49.387Z,2.28
2023-01-18T08:45:49.757Z,2.27
2023-01-18T08:46:49.496Z,2.23
2023-01-18T08:47:49.391Z,2.2
2023-01-18T08:48:49.389Z,2.22
2023-01-18T08:49:49.404Z,2.25
2023-01-18T08:50:51.713Z,2.3
2023-01-18T08:51:55.268Z,2.34
2023-01-18T08:52:49.379Z,2.39
2023-01-18T08:53:49.398Z,2.44
2023-01-18T08:54:49.407Z,2.45
2023-01-18T08:55:49.801Z,2.47
2023-01-18T08:56:49.390Z,2.52
2023-01-18T08:57:49.385Z,2.58
2023-01-18T08:58:49.488Z,2.54
2023-01-18T08:59:49.389Z,2.51
2023-01-18T09:00:49.829Z,2.55
2023-01-18T09:01:49.477Z,2.58
2023-01-18T09:02:51.824Z,2.58
2023-01-18T09:03:49.393Z,2.6
2023-01-18T09:04:49.398Z,2.66
2023-01-18T09:05:49.796Z,2.68
2023-01-18T09:06:50.388Z,2.65
2023-01-18T09:07:49.794Z,2.68
2023-01-18T09:08:49.430Z,2.69
2023-01-18T09:09:49.399Z,2.73
2023-01-18T09:10:49.795Z,2.81
2023-01-18T09:11:49.389Z,2.87
2023-01-18T09:12:49.442Z,2.93
2023-01-18T09:14:00.259Z,2.88
2023-01-18T09:14:49.395Z,2.92
2023-01-18T09:15:49.834Z,2.96
2023-01-18T09:16:49.383Z,2.96
2023-01-18T09:17:49.389Z,2.98
2023-01-18T09:18:51.758Z,2.98
2023-01-18T09:19:49.405Z,2.94
2023-01-18T09:20:49.994Z,3.03
2023-01-18T09:21:49.387Z,3.07
2023-01-18T09:22:49.774Z,3.07
2023-01-18T09:23:49.404Z,3.09
2023-01-18T09:24:49.402Z,3.13
2023-01-18T09:25:49.763Z,3.19
2023-01-18T09:26:49.407Z,3.26
2023-01-18T09:27:49.408Z,3.3
2023-01-18T09:28:49.382Z,3.36
2023-01-18T09:29:51.770Z,3.25
2023-01-18T09:30:49.769Z,3.25
2023-01-18T09:31:49.520Z,3.23
2023-01-18T09:32:49.403Z,3.27
2023-01-18T09:33:53.601Z,3.35
2023-01-18T09:34:49.474Z,3.4
2023-01-18T09:35:49.751Z,3.4
2023-01-18T09:36:49.404Z,3.35
2023-01-18T09:37:49.761Z,3.38
2023-01-18T09:38:49.389Z,3.41
2023-01-18T09:39:52.305Z,3.45
2023-01-18T09:40:54.286Z,3.49
2023-01-18T09:41:49.422Z,3.57
2023-01-18T09:42:49.399Z,3.47
2023-01-18T09:43:49.385Z,3.49
2023-01-18T09:44:49.473Z,3.48
2023-01-18T09:45:49.747Z,3.47
2023-01-18T09:46:49.864Z,3.51
2023-01-18T09:47:49.406Z,3.51
2023-01-18T09:48:49.400Z,3.54
2023-01-18T09:49:49.412Z,3.59
2023-01-18T09:50:49.752Z,3.62
2023-01-18T09:51:51.746Z,3.66
2023-01-18T09:52:49.775Z,3.61
2023-01-18T09:53:49.396Z,3.68
2023-01-18T09:54:49.405Z,3.73
2023-01-18T09:55:49.776Z,3.76
2023-01-18T09:56:49.388Z,3.82
2023-01-18T09:57:49.391Z,3.9
2023-01-18T09:58:49.405Z,3.89
2023-01-18T09:59:49.425Z,3.8
2023-01-18T10:00:49.894Z,3.79
2023-01-18T10:01:49.693Z,3.86
2023-01-18T10:02:51.854Z,3.97
2023-01-18T10:03:49.424Z,4
2023-01-18T10:04:49.405Z,4.02
2023-01-18T10:05:49.750Z,3.96
2023-01-18T10:06:49.425Z,3.98
2023-01-18T10:07:49.751Z,3.98
2023-01-18T10:08:49.399Z,3.98
2023-01-18T10:09:49.398Z,3.98
2023-01-18T10:10:49.770Z,3.99
2023-01-18T10:11:49.426Z,4.03
2023-01-18T10:12:49.387Z,4.13
2023-01-18T10:13:51.782Z,4.13
2023-01-18T10:14:49.405Z,4.03
2023-01-18T10:15:49.747Z,4.02
2023-01-18T10:16:49.406Z,4.01
2023-01-18T10:17:49.411Z,3.96
2023-01-18T10:18:49.404Z,4.03
2023-01-18T10:19:49.424Z,4.11
2023-01-18T10:20:49.746Z,4.13
2023-01-18T10:21:49.388Z,4.17
2023-01-18T10:22:49.751Z,4.09
2023-01-18T10:23:49.409Z,4.15
2023-01-18T10:24:51.751Z,4.16
2023-01-18T10:25:49.760Z,4.23
2023-01-18T10:26:49.396Z,4.31
2023-01-18T10:27:49.392Z,4.38
2023-01-18T10:28:49.406Z,4.41
2023-01-18T10:29:49.387Z,4.51
2023-01-18T10:30:49.757Z,4.65
2023-01-18T10:31:49.486Z,4.73
2023-01-18T10:32:49.407Z,4.82
2023-01-18T10:33:49.382Z,4.88
2023-01-18T10:34:49.401Z,4.92
2023-01-18T10:35:51.734Z,4.97
2023-01-18T10:36:49.384Z,4.96
2023-01-18T10:37:49.755Z,4.93
2023-01-18T10:38:49.407Z,4.94
2023-01-18T10:39:49.389Z,4.97
2023-01-18T10:40:49.747Z,4.98
2023-01-18T10:41:49.380Z,4.86
2023-01-18T10:42:49.403Z,4.89
2023-01-18T10:43:49.406Z,5
2023-01-18T10:44:49.426Z,5.05
2023-01-18T10:45:49.823Z,5.08
2023-01-18T10:46:51.728Z,5.04
2023-01-18T10:47:49.495Z,5.04
2023-01-18T10:48:49.409Z,5.09
2023-01-18T10:49:49.387Z,5.18
2023-01-18T10:50:52.340Z,5.28
2023-01-18T10:51:49.396Z,5.26
2023-01-18T10:52:49.825Z,5.24
2023-01-18T10:53:49.395Z,5.18
2023-01-18T10:54:49.390Z,5.22
2023-01-18T10:55:49.758Z,5.25
2023-01-18T10:56:49.395Z,5.25
2023-01-18T10:57:51.731Z,5.21
2023-01-18T10:58:49.407Z,5.32
2023-01-18T10:59:49.396Z,5.41
2023-01-18T11:00:50.148Z,5.5
2023-01-18T11:01:49.603Z,5.56
2023-01-18T11:02:49.457Z,5.58
2023-01-18T11:03:49.397Z,5.56
2023-01-18T11:04:49.385Z,5.6
2023-01-18T11:05:49.986Z,5.73
2023-01-18T11:06:49.408Z,5.82
2023-01-18T11:07:49.760Z,5.88
2023-01-18T11:08:51.821Z,5.91
2023-01-18T11:09:49.425Z,5.84
2023-01-18T11:10:49.744Z,5.78
2023-01-18T11:11:49.420Z,5.86
2023-01-18T11:12:49.387Z,5.96
2023-01-18T11:13:49.396Z,5.98
2023-01-18T11:14:49.406Z,5.86
2023-01-18T11:15:49.757Z,5.6
2023-01-18T11:16:49.413Z,5.56
2023-01-18T11:17:49.382Z,5.59
2023-01-18T11:18:51.425Z,5.63
2023-01-18T11:19:51.851Z,5.71
2023-01-18T11:20:49.757Z,5.84
2023-01-18T11:21:51.572Z,5.91
2023-01-18T11:22:49.758Z,5.86
2023-01-18T11:23:49.395Z,5.68
2023-01-18T11:24:49.398Z,5.46
2023-01-18T11:25:49.764Z,5.38
2023-01-18T11:26:49.407Z,5.46
2023-01-18T11:27:49.528Z,5.54
2023-01-18T11:28:49.559Z,5.52
2023-01-18T11:29:49.483Z,5.49
2023-01-18T11:30:54.207Z,5.53
2023-01-18T11:31:49.606Z,5.57
2023-01-18T11:32:49.397Z,5.66
2023-01-18T11:33:49.496Z,5.67
2023-01-18T11:34:49.478Z,5.48
2023-01-18T11:35:49.750Z,5.42
2023-01-18T11:36:49.385Z,5.4
2023-01-18T11:37:49.748Z,5.42
2023-01-18T11:38:49.543Z,5.38
2023-01-18T11:39:49.523Z,5.31
2023-01-18T11:40:49.754Z,5.3
2023-01-18T11:41:51.803Z,5.3
2023-01-18T11:42:49.394Z,5.3
2023-01-18T11:43:49.418Z,5.38
2023-01-18T11:44:49.410Z,5.42
2023-01-18T11:45:49.789Z,5.45
2023-01-18T11:46:49.506Z,5.35
2023-01-18T11:47:49.501Z,5.21
2023-01-18T11:48:49.510Z,5.12
2023-01-18T11:49:49.411Z,5.02
2023-01-18T11:50:49.774Z,5.05
2023-01-18T11:51:49.393Z,4.98
2023-01-18T11:52:54.194Z,4.98
2023-01-18T11:53:49.493Z,4.99
2023-01-18T11:54:49.427Z,4.88
2023-01-18T11:55:49.754Z,4.85
2023-01-18T11:56:49.419Z,4.79
2023-01-18T11:57:49.469Z,4.72
2023-01-18T11:58:49.540Z,4.73
2023-01-18T11:59:49.387Z,4.76
2023-01-18T12:00:49.786Z,4.73
2023-01-18T12:01:49.430Z,4.72
2023-01-18T12:02:49.564Z,4.72
2023-01-18T12:03:51.832Z,4.73
2023-01-18T12:04:49.383Z,4.73
2023-01-18T12:05:49.762Z,4.58
2023-01-18T12:06:49.521Z,4.5
2023-01-18T12:07:49.755Z,4.5
2023-01-18T12:08:49.467Z,4.52
2023-01-18T12:09:49.415Z,4.54
2023-01-18T12:10:49.750Z,4.48
2023-01-18T12:11:49.577Z,4.44
2023-01-18T12:12:49.471Z,4.44
2023-01-18T12:13:49.454Z,4.43
2023-01-18T12:14:51.840Z,4.42
2023-01-18T12:15:49.754Z,4.44
2023-01-18T12:16:49.535Z,4.54
2023-01-18T12:17:49.502Z,4.64
2023-01-18T12:18:49.509Z,4.68
2023-01-18T12:19:49.409Z,4.65
2023-01-18T12:20:49.783Z,4.56
2023-01-18T12:21:49.536Z,4.54
2023-01-18T12:22:49.809Z,4.56
2023-01-18T12:23:49.502Z,4.58
2023-01-18T12:24:49.408Z,4.55
2023-01-18T12:26:10.711Z,4.59
2023-01-18T12:26:49.538Z,4.67
2023-01-18T12:27:49.517Z,4.76
2023-01-18T12:28:49.512Z,4.83
2023-01-18T12:29:49.371Z,4.91
2023-01-18T12:30:49.790Z,4.86
2023-01-18T12:31:49.425Z,4.8
2023-01-18T12:32:50.430Z,4.84
2023-01-18T12:33:49.530Z,4.83
2023-01-18T12:34:49.491Z,4.76
2023-01-18T12:35:49.755Z,4.73
2023-01-18T12:36:51.756Z,4.69
2023-01-18T12:37:49.782Z,4.7
2023-01-18T12:38:49.487Z,4.76
2023-01-18T12:39:49.404Z,4.83
2023-01-18T12:40:49.766Z,4.92
2023-01-18T12:41:49.518Z,4.96
2023-01-18T12:42:49.532Z,5.03
2023-01-18T12:43:49.501Z,5.08
2023-01-18T12:44:49.489Z,5.13
2023-01-18T12:45:49.786Z,5.16
2023-01-18T12:46:49.520Z,5.14
2023-01-18T12:47:51.756Z,5.22
2023-01-18T12:48:49.503Z,5.3
2023-01-18T12:49:49.453Z,5.28
2023-01-18T12:50:49.744Z,5.23
2023-01-18T12:51:49.429Z,5.25
2023-01-18T12:52:49.753Z,5.26
2023-01-18T12:53:49.500Z,5.24
2023-01-18T12:54:49.520Z,5.23
2023-01-18T12:55:49.760Z,5.24
2023-01-18T12:56:49.495Z,5.17
2023-01-18T12:57:49.392Z,5.11
2023-01-18T12:58:51.796Z,5.14
2023-01-18T12:59:49.431Z,5.08
2023-01-18T13:00:49.800Z,5.06
2023-01-18T13:01:49.455Z,5.02
2023-01-18T13:02:49.473Z,4.95
2023-01-18T13:03:49.455Z,4.87
2023-01-18T13:04:49.478Z,4.82
2023-01-18T13:05:49.747Z,4.82
2023-01-18T13:06:49.521Z,4.87
2023-01-18T13:07:49.752Z,4.9
2023-01-18T13:08:49.464Z,4.95
2023-01-18T13:09:51.861Z,5
2023-01-18T13:10:49.769Z,5.06
2023-01-18T13:11:49.543Z,5.06
2023-01-18T13:12:49.398Z,5.03
2023-01-18T13:13:49.489Z,5
2023-01-18T13:14:49.388Z,4.94
2023-01-18T13:15:49.822Z,4.9
2023-01-18T13:16:49.530Z,4.82
2023-01-18T13:17:49.481Z,4.76
2023-01-18T13:18:49.400Z,4.73
2023-01-18T13:19:49.458Z,4.73
2023-01-18T13:20:54.259Z,4.7
2023-01-18T13:21:49.530Z,4.66